Kathy Jeanne — WDE2421 — position and weather

sailwx.info

Track history (hours):
 
Tides and Currents Weather Stations Pressure Air Temp Water Temp Dewpoint Dewpoint Depression Visibility Wind Speed Wind Dir Waves Ship Positions

Kathy Jeanne

Owner: MESITICH, RONNIE C, TERMINAL ISLAND, CA. More information available from US FCC via Universal Licensing System and Coast Guard Vessel Documentation Center.

Last reported at 2017-Sep-19 05:13 UTC. Time now 2017-Sep-19 16:55 UTC.
Position N 33°44' W 118°16'.

Length 21 m.

Type: Fishing. MMSI: 367778000.

Date/timePositionNaut miles runAvg speedWind from/ knotsBaromVisibWave heightAir tempDewpointWater temp
2017-Sep-19 05:13N 33°44' W 118°16'0 0.0
2017-Sep-19 04:49N 33°44' W 118°16'  
2017-Sep-13 22:41N 33°44' W 118°16'0 0.0
2017-Sep-13 22:23N 33°44' W 118°16'0 0.0
2017-Sep-13 07:47N 33°44' W 118°16'0 0.0
2017-Sep-13 03:53N 33°44' W 118°16'0 0.0
2017-Sep-13 02:17N 33°44' W 118°16'0 0.0
2017-Sep-13 01:59N 33°44' W 118°16'0 0.0
2017-Sep-13 01:29N 33°44' W 118°16'0 0.0
2017-Sep-13 00:59N 33°44' W 118°16'0 0.0
2017-Sep-13 00:26N 33°44' W 118°16'0 0.0
2017-Sep-12 23:56N 33°44' W 118°16'0 0.0
2017-Sep-12 23:29N 33°44' W 118°16'0 0.0
2017-Sep-12 22:59N 33°44' W 118°16'0 0.0
2017-Sep-12 22:29N 33°44' W 118°16'0 0.0
2017-Sep-12 20:23N 33°44' W 118°16'0 0.0
2017-Sep-12 18:29N 33°44' W 118°16'0 0.0
2017-Sep-12 17:59N 33°44' W 118°16'0 0.0
2017-Sep-12 17:29N 33°44' W 118°16'0 0.0
2017-Sep-12 16:47N 33°44' W 118°16'0 0.0
2017-Sep-12 16:29N 33°44' W 118°16'0 0.0
2017-Sep-12 08:59N 33°44' W 118°16'0 0.0
2017-Sep-12 08:26N 33°44' W 118°16'0 0.0
2017-Sep-12 07:59N 33°44' W 118°16'0 0.0
2017-Sep-12 07:26N 33°44' W 118°16'0 0.0
2017-Sep-12 06:53N 33°44' W 118°16'0 0.0
2017-Sep-12 06:26N 33°44' W 118°16'0 0.0
2017-Sep-12 05:59N 33°44' W 118°16'0 0.0
2017-Sep-12 05:29N 33°44' W 118°16'0 0.0
2017-Sep-12 04:59N 33°44' W 118°16'0 0.0
2017-Sep-12 04:26N 33°44' W 118°16'0 0.0
2017-Sep-12 03:53N 33°44' W 118°16'0 0.0
2017-Sep-12 03:26N 33°44' W 118°16'0 0.0
2017-Sep-12 02:56N 33°44' W 118°16'0 0.0
2017-Sep-12 02:29N 33°44' W 118°16'0 0.0
2017-Sep-12 01:59N 33°44' W 118°16'0 0.0
2017-Sep-12 01:14N 33°44' W 118°16'0 0.0
2017-Sep-12 00:59N 33°44' W 118°16'1 2.3
2017-Sep-12 00:28N 33°43' W 118°16'4 8.2
2017-Sep-12 00:00N 33°40' W 118°13'4 7.5
2017-Sep-11 23:30N 33°37' W 118°11'4 7.4
2017-Sep-11 22:59N 33°33' W 118°09'4 7.5
2017-Sep-11 22:30N 33°30' W 118°06'4 7.7
2017-Sep-11 22:00N 33°27' W 118°03'4 7.2
2017-Sep-11 21:30N 33°24' W 118°04'4 8.4
2017-Sep-11 21:00N 33°20' W 118°06'10 2.1
2017-Sep-11 16:12N 33°20' W 118°18'0 1.0
2017-Sep-11 16:00N 33°20' W 118°18'1 0.1
2017-Sep-11 03:46N 33°21' W 118°18'2 8.8
2017-Sep-11 03:30N 33°23' W 118°17'5 9.0
2017-Sep-11 03:00N 33°27' W 118°16'16 7.6
2017-Sep-11 00:54N 33°43' W 118°16'1 2.6
2017-Sep-11 00:26N 33°44' W 118°16'0 0.0
2017-Sep-10 23:56N 33°44' W 118°16'0 0.0
2017-Sep-10 23:26N 33°44' W 118°16'0 0.0
2017-Sep-10 22:56N 33°44' W 118°16'0 0.0
2017-Sep-10 22:29N 33°44' W 118°16'0 0.0
2017-Sep-10 21:56N 33°44' W 118°16'0 0.0
2017-Sep-10 21:26N 33°44' W 118°16'0 0.0
2017-Sep-10 20:56N 33°44' W 118°16'0 0.0
2017-Sep-10 20:26N 33°44' W 118°16'0 0.0
2017-Sep-10 19:56N 33°44' W 118°16'0 0.0
2017-Sep-10 19:26N 33°44' W 118°16'0 0.0
2017-Sep-10 18:56N 33°44' W 118°16'0 0.0
2017-Sep-10 18:14N 33°44' W 118°16'0 0.0
2017-Sep-10 17:50N 33°44' W 118°16'0 0.0
2017-Sep-10 17:26N 33°44' W 118°16'0 0.0
2017-Sep-10 16:56N 33°44' W 118°16'0 0.0
2017-Sep-10 16:20N 33°44' W 118°16'0 0.0
2017-Sep-10 15:59N 33°44' W 118°16'0 0.0
2017-Sep-10 15:29N 33°44' W 118°16'0 0.0
2017-Sep-10 14:59N 33°44' W 118°16'0 0.0
2017-Sep-10 13:56N 33°44' W 118°16'0 0.0
2017-Sep-10 13:26N 33°44' W 118°16'0 0.0
2017-Sep-10 12:56N 33°44' W 118°16'0 0.0
2017-Sep-10 12:29N 33°44' W 118°16'0 0.0
2017-Sep-10 11:59N 33°44' W 118°16'0 0.0
2017-Sep-10 11:29N 33°44' W 118°16'0 0.0
2017-Sep-10 10:56N 33°44' W 118°16'0 0.0
2017-Sep-10 10:26N 33°44' W 118°16'0 0.0
2017-Sep-10 09:59N 33°44' W 118°16'0 0.0
2017-Sep-10 09:26N 33°44' W 118°16'0 0.0
2017-Sep-10 08:59N 33°44' W 118°16'0 0.0
2017-Sep-10 08:26N 33°44' W 118°16'0 0.0
2017-Sep-10 07:56N 33°44' W 118°16'0 0.0
2017-Sep-10 07:29N 33°44' W 118°16'0 0.0
2017-Sep-10 06:53N 33°44' W 118°16'0 0.0
2017-Sep-10 06:26N 33°44' W 118°16'0 0.0
2017-Sep-10 05:56N 33°44' W 118°16'0 0.0
2017-Sep-10 05:20N 33°44' W 118°16'0 0.0
2017-Sep-10 04:56N 33°44' W 118°16'0 0.0
2017-Sep-10 04:20N 33°44' W 118°16'0 0.0
2017-Sep-10 03:56N 33°44' W 118°16'0 0.0
2017-Sep-10 02:38N 33°44' W 118°16'0 0.0
2017-Sep-10 01:59N 33°44' W 118°16'0 0.0
2017-Sep-10 01:29N 33°44' W 118°16'0 0.0
2017-Sep-10 00:59N 33°44' W 118°16'0 0.0
2017-Sep-10 00:26N 33°44' W 118°16'0 0.0
2017-Sep-09 20:26N 33°44' W 118°16'0 0.0
2017-Sep-09 17:35N 33°44' W 118°16'0 0.0
2017-Sep-09 17:26N 33°44' W 118°16'0 0.0
2017-Sep-09 15:44N 33°44' W 118°16'  
Track history (hours):
 
Tides and Currents Weather Stations Pressure Air Temp Water Temp Dewpoint Dewpoint Depression Visibility Wind Speed Wind Dir Waves Ship Positions

Kathy Jeanne

Owner: MESITICH, RONNIE C, TERMINAL ISLAND, CA. More information available from US FCC via Universal Licensing System and Coast Guard Vessel Documentation Center.

Last reported at 2017-Sep-19 05:13 UTC. Time now 2017-Sep-19 16:55 UTC.
Position N 33°44' W 118°16'.

Length 21 m.

Type: Fishing. MMSI: 367778000.

Date/timePositionNaut miles runAvg speedWind from/ knotsBaromVisibWave heightAir tempDewpointWater temp
2017-Sep-19 05:13N 33°44' W 118°16'0 0.0
2017-Sep-19 04:49N 33°44' W 118°16'  
2017-Sep-13 22:41N 33°44' W 118°16'0 0.0
2017-Sep-13 22:23N 33°44' W 118°16'0 0.0
2017-Sep-13 07:47N 33°44' W 118°16'0 0.0
2017-Sep-13 03:53N 33°44' W 118°16'0 0.0
2017-Sep-13 02:17N 33°44' W 118°16'0 0.0
2017-Sep-13 01:59N 33°44' W 118°16'0 0.0
2017-Sep-13 01:29N 33°44' W 118°16'0 0.0
2017-Sep-13 00:59N 33°44' W 118°16'0 0.0
2017-Sep-13 00:26N 33°44' W 118°16'0 0.0
2017-Sep-12 23:56N 33°44' W 118°16'0 0.0
2017-Sep-12 23:29N 33°44' W 118°16'0 0.0
2017-Sep-12 22:59N 33°44' W 118°16'0 0.0
2017-Sep-12 22:29N 33°44' W 118°16'0 0.0
2017-Sep-12 20:23N 33°44' W 118°16'0 0.0
2017-Sep-12 18:29N 33°44' W 118°16'0 0.0
2017-Sep-12 17:59N 33°44' W 118°16'0 0.0
2017-Sep-12 17:29N 33°44' W 118°16'0 0.0
2017-Sep-12 16:47N 33°44' W 118°16'0 0.0
2017-Sep-12 16:29N 33°44' W 118°16'0 0.0
2017-Sep-12 08:59N 33°44' W 118°16'0 0.0
2017-Sep-12 08:26N 33°44' W 118°16'0 0.0
2017-Sep-12 07:59N 33°44' W 118°16'0 0.0
2017-Sep-12 07:26N 33°44' W 118°16'0 0.0
2017-Sep-12 06:53N 33°44' W 118°16'0 0.0
2017-Sep-12 06:26N 33°44' W 118°16'0 0.0
2017-Sep-12 05:59N 33°44' W 118°16'0 0.0
2017-Sep-12 05:29N 33°44' W 118°16'0 0.0
2017-Sep-12 04:59N 33°44' W 118°16'0 0.0
2017-Sep-12 04:26N 33°44' W 118°16'0 0.0
2017-Sep-12 03:53N 33°44' W 118°16'0 0.0
2017-Sep-12 03:26N 33°44' W 118°16'0 0.0
2017-Sep-12 02:56N 33°44' W 118°16'0 0.0
2017-Sep-12 02:29N 33°44' W 118°16'0 0.0
2017-Sep-12 01:59N 33°44' W 118°16'0 0.0
2017-Sep-12 01:14N 33°44' W 118°16'0 0.0
2017-Sep-12 00:59N 33°44' W 118°16'1 2.3
2017-Sep-12 00:28N 33°43' W 118°16'4 8.2
2017-Sep-12 00:00N 33°40' W 118°13'4 7.5
2017-Sep-11 23:30N 33°37' W 118°11'4 7.4
2017-Sep-11 22:59N 33°33' W 118°09'4 7.5
2017-Sep-11 22:30N 33°30' W 118°06'4 7.7
2017-Sep-11 22:00N 33°27' W 118°03'4 7.2
2017-Sep-11 21:30N 33°24' W 118°04'4 8.4
2017-Sep-11 21:00N 33°20' W 118°06'10 2.1
2017-Sep-11 16:12N 33°20' W 118°18'0 1.0
2017-Sep-11 16:00N 33°20' W 118°18'1 0.1
2017-Sep-11 03:46N 33°21' W 118°18'2 8.8
2017-Sep-11 03:30N 33°23' W 118°17'5 9.0
2017-Sep-11 03:00N 33°27' W 118°16'16 7.6
2017-Sep-11 00:54N 33°43' W 118°16'1 2.6
2017-Sep-11 00:26N 33°44' W 118°16'0 0.0
2017-Sep-10 23:56N 33°44' W 118°16'0 0.0
2017-Sep-10 23:26N 33°44' W 118°16'0 0.0
2017-Sep-10 22:56N 33°44' W 118°16'0 0.0
2017-Sep-10 22:29N 33°44' W 118°16'0 0.0
2017-Sep-10 21:56N 33°44' W 118°16'0 0.0
2017-Sep-10 21:26N 33°44' W 118°16'0 0.0
2017-Sep-10 20:56N 33°44' W 118°16'0 0.0
2017-Sep-10 20:26N 33°44' W 118°16'0 0.0
2017-Sep-10 19:56N 33°44' W 118°16'0 0.0
2017-Sep-10 19:26N 33°44' W 118°16'0 0.0
2017-Sep-10 18:56N 33°44' W 118°16'0 0.0
2017-Sep-10 18:14N 33°44' W 118°16'0 0.0
2017-Sep-10 17:50N 33°44' W 118°16'0 0.0
2017-Sep-10 17:26N 33°44' W 118°16'0 0.0
2017-Sep-10 16:56N 33°44' W 118°16'0 0.0
2017-Sep-10 16:20N 33°44' W 118°16'0 0.0
2017-Sep-10 15:59N 33°44' W 118°16'0 0.0
2017-Sep-10 15:29N 33°44' W 118°16'0 0.0
2017-Sep-10 14:59N 33°44' W 118°16'0 0.0
2017-Sep-10 13:56N 33°44' W 118°16'0 0.0
2017-Sep-10 13:26N 33°44' W 118°16'0 0.0
2017-Sep-10 12:56N 33°44' W 118°16'0 0.0
2017-Sep-10 12:29N 33°44' W 118°16'0 0.0
2017-Sep-10 11:59N 33°44' W 118°16'0 0.0
2017-Sep-10 11:29N 33°44' W 118°16'0 0.0
2017-Sep-10 10:56N 33°44' W 118°16'0 0.0
2017-Sep-10 10:26N 33°44' W 118°16'0 0.0
2017-Sep-10 09:59N 33°44' W 118°16'0 0.0
2017-Sep-10 09:26N 33°44' W 118°16'0 0.0
2017-Sep-10 08:59N 33°44' W 118°16'0 0.0
2017-Sep-10 08:26N 33°44' W 118°16'0 0.0
2017-Sep-10 07:56N 33°44' W 118°16'0 0.0
2017-Sep-10 07:29N 33°44' W 118°16'0 0.0
2017-Sep-10 06:53N 33°44' W 118°16'0 0.0
2017-Sep-10 06:26N 33°44' W 118°16'0 0.0
2017-Sep-10 05:56N 33°44' W 118°16'0 0.0
2017-Sep-10 05:20N 33°44' W 118°16'0 0.0
2017-Sep-10 04:56N 33°44' W 118°16'0 0.0
2017-Sep-10 04:20N 33°44' W 118°16'0 0.0
2017-Sep-10 03:56N 33°44' W 118°16'0 0.0
2017-Sep-10 02:38N 33°44' W 118°16'0 0.0
2017-Sep-10 01:59N 33°44' W 118°16'0 0.0
2017-Sep-10 01:29N 33°44' W 118°16'0 0.0
2017-Sep-10 00:59N 33°44' W 118°16'0 0.0
2017-Sep-10 00:26N 33°44' W 118°16'0 0.0
2017-Sep-09 20:26N 33°44' W 118°16'0 0.0
2017-Sep-09 17:35N 33°44' W 118°16'0 0.0
2017-Sep-09 17:26N 33°44' W 118°16'0 0.0
2017-Sep-09 15:44N 33°44' W 118°16'  

Dump ship's entire track history